Aérodrome :
LOGIN :

S'inscrire | Disclaimer

   EN    FR    IT 

 










Légende :    VFR   VFR Marginal   IFR   IFR Intensif   IFR Très Intensif
Visi : 
Plafond : 
>= 8 km
>= 3000ft
5 à 8 km
1000 à 3000 ft
1500m à 5 km
500 à 1000 ft
800 à 1500m
200 à 500 ft
< 800m
< 200 ft
Symboles :   Orages  Brouillard  Fortes neiges  Fortes précipitations  Vent > 20 kt
SIGMETs :   Divers  Orages  Givrage  Turbulence  Onde Orograph.  Cendres Volcan.






- Altitude de l'aérodrome : 7 ft
- Code IATA : XHE


LFTH - Hyeres

DERNIER METAR :
  • 191600Z AUTO 31013KT 280V360 CAVOK 17/M00 Q1021 BECMG 31015G25KT

METARs EXPIRÉS :
  • 191530Z AUTO 31016G28KT 280V340 CAVOK 17/01 Q1021 NOSIG
  • 191500Z AUTO 30017KT 280V340 CAVOK 17/01 Q1021 BECMG 31015G25KT
  • 191430Z AUTO 31019KT 280V350 CAVOK 17/01 Q1021 BECMG 31015G25KT
  • 191400Z AUTO 30014KT 270V340 CAVOK 17/01 Q1021 BECMG 31015G25KT
  • 191330Z AUTO 30017KT CAVOK 17/01 Q1022 BECMG 31015G25KT

TAF TAF LFTH
Valide du 19 à 15h jusqu'au 20 à 15h UTC


191400Z 1915/2015 31015G25KT CAVOK
PROB40
TEMPO 1919/1924 VRB25G38KT
BECMG 2001/2003 01005KT
BECMG 2010/2012 11010KT



MET'MAP, la Météo Aéronautique d'un coup d'oeil ! - Copyright ORBIFLY Décembre 2007 - Disclaimer

ORBIFLY MET'MAP TEAM :

Programmation & Développement : Alexandra Zaïnal
Sur une idée originale de : Baudouin d'Aumeries
Assistance à la programmation : Marc-Olivier Méhu
Soutien technique & logistique : Manuel Goepfert

Contact : metmap@orbifly.com




SOURCES & CREDITS :

   NOAA